Wilsonia, California
Current Conditions -  °F | °C
As of 1:56 AM on Saturday 25 Oct 2014 (Local Time) from KBIH Reporting Station
Clear Clear  
Wind Chill: 66°   Ceiling: Unl
Heat Index: 66°   Visibility: 10mi
Dew Point: 25°   Wind: 16mph
Humidity: 21%   Direction: 150°SSE
Pressure: 30"   Gusts: NA
Location:  36.7872°N, 118.66°W
Report Text: KBIH 250856Z AUTO 15014KT 10SM CLR 19/M04 A3000 RMK AO2 SLP110 T01891039 55001
Loading
Personal Weather Stations






























Interactive Weather Map
Tropical Storm Tracking
New forecast layout! Learn more

10-Day Weather Forecast

Advertisements
Track Severe Weather on mobile